Time;durP1;ratioP1;P1;durP2;ratioP2;P2;SDS_P1;SDS_P2;PMS_P1;PMS_P2;Temp;Humidity;BMP_temperature;BMP_pressure;BME280_temperature;BME280_humidity;BME280_pressure;Samples;Min_cycle;Max_cycle;Signal;HPM_P1;HPM_P2
2024/02/19 00:02:21;;;;;;;9.50;4.28;;;;;;;;;;5014143;28;20386;-57
2024/02/19 00:04:47;;;;;;;8.73;4.30;;;;;;;;;;5013000;28;20037;-59
2024/02/19 00:07:14;;;;;;;9.13;4.00;;;;;;;;;;5015635;28;20032;-58
2024/02/19 00:09:39;;;;;;;8.60;3.90;;;;;;;;;;5015217;28;20186;-58
2024/02/19 00:12:04;;;;;;;7.63;3.20;;;;;;;;;;5012933;28;20403;-58
2024/02/19 00:14:29;;;;;;;8.33;3.43;;;;;;;;;;5012416;28;20026;-57
2024/02/19 00:16:55;;;;;;;7.28;3.58;;;;;;;;;;5012641;28;20422;-58
2024/02/19 00:19:21;;;;;;;7.60;3.60;;;;;;;;;;5010953;28;20467;-58
2024/02/19 00:21:46;;;;;;;6.78;3.17;;;;;;;;;;5012764;28;20037;-57
2024/02/19 00:24:11;;;;;;;6.80;2.90;;;;;;;;;;5011336;28;20022;-58
2024/02/19 00:26:36;;;;;;;5.60;2.88;;;;;;;;;;5012453;28;20119;-58
2024/02/19 00:29:01;;;;;;;7.18;3.10;;;;;;;;;;5012049;28;20061;-56
2024/02/19 00:31:27;;;;;;;6.37;2.93;;;;;;;;;;5012143;28;20025;-58
2024/02/19 00:33:53;;;;;;;5.00;2.17;;;;;;;;;;5010489;28;20022;-58
2024/02/19 00:36:19;;;;;;;6.80;2.47;;;;;;;;;;5012520;28;20022;-58
2024/02/19 00:38:44;;;;;;;4.97;1.30;;;;;;;;;;5027469;28;20029;-58
2024/02/19 00:41:10;;;;;;;4.25;1.25;;;;;;;;;;5031943;28;20477;-57
2024/02/19 00:43:36;;;;;;;4.32;1.30;;;;;;;;;;5031522;28;20024;-57
2024/02/19 00:46:01;;;;;;;;;;;;;;;;;;5028211;28;20017;-56
2024/02/19 00:48:27;;;;;;;3.50;1.23;;;;;;;;;;5012139;28;20439;-57
2024/02/19 00:50:52;;;;;;;3.90;1.20;;;;;;;;;;5011981;28;20013;-56
2024/02/19 00:53:17;;;;;;;3.47;1.23;;;;;;;;;;5012102;28;20018;-57
2024/02/19 00:55:42;;;;;;;3.70;1.30;;;;;;;;;;5011666;28;20470;-57
2024/02/19 00:58:07;;;;;;;3.17;1.20;;;;;;;;;;5011739;28;20097;-57
2024/02/19 01:00:33;;;;;;;3.10;1.07;;;;;;;;;;5013157;28;20049;-57
2024/02/19 01:02:58;;;;;;;3.78;1.20;;;;;;;;;;5012416;28;20085;-57
2024/02/19 01:05:25;;;;;;;2.90;1.20;;;;;;;;;;5012128;28;20021;-57
2024/02/19 01:07:50;;;;;;;3.35;1.23;;;;;;;;;;5012233;28;20029;-57
2024/02/19 01:10:15;;;;;;;2.87;1.10;;;;;;;;;;5012810;28;20038;-57
2024/02/19 01:12:40;;;;;;;3.60;1.20;;;;;;;;;;5011714;28;20528;-56
2024/02/19 01:15:06;;;;;;;3.33;1.10;;;;;;;;;;5014096;28;20029;-57
2024/02/19 01:17:31;;;;;;;3.85;1.23;;;;;;;;;;5012768;28;20083;-57
2024/02/19 01:19:57;;;;;;;3.13;1.15;;;;;;;;;;5013851;28;20371;-57
2024/02/19 01:22:22;;;;;;;2.80;1.08;;;;;;;;;;5012682;28;20033;-56
2024/02/19 01:24:48;;;;;;;3.07;1.07;;;;;;;;;;5011562;28;20029;-57
2024/02/19 01:27:13;;;;;;;2.47;0.93;;;;;;;;;;5012355;28;20116;-57
2024/02/19 01:29:38;;;;;;;2.85;1.00;;;;;;;;;;5011954;28;20056;-57
2024/02/19 01:32:04;;;;;;;3.58;1.20;;;;;;;;;;5012903;28;20038;-58
2024/02/19 01:34:29;;;;;;;3.25;1.02;;;;;;;;;;5013550;28;20429;-57
2024/02/19 01:36:57;;;;;;;1.95;0.75;;;;;;;;;;5013446;28;20420;-58
2024/02/19 01:39:22;;;;;;;3.17;1.02;;;;;;;;;;5001403;28;20120;-56
2024/02/19 01:41:47;;;;;;;3.40;0.90;;;;;;;;;;5012228;28;20469;-58
2024/02/19 01:44:14;;;;;;;2.83;1.10;;;;;;;;;;5028986;28;20029;-57
2024/02/19 01:46:39;;;;;;;2.80;0.85;;;;;;;;;;4992167;28;20022;-57
2024/02/19 01:49:05;;;;;;;3.05;0.88;;;;;;;;;;4994715;28;20022;-57
2024/02/19 01:51:31;;;;;;;2.00;0.70;;;;;;;;;;4993565;28;20154;-57
2024/02/19 01:53:57;;;;;;;2.15;0.75;;;;;;;;;;5007320;28;20023;-57
2024/02/19 01:56:22;;;;;;;2.17;0.80;;;;;;;;;;4991777;28;20014;-58
2024/02/19 01:58:47;;;;;;;2.20;0.80;;;;;;;;;;4990321;28;20372;-58
2024/02/19 02:01:13;;;;;;;2.17;0.70;;;;;;;;;;4991445;28;20485;-57
2024/02/19 02:03:39;;;;;;;2.38;0.70;;;;;;;;;;4992903;28;20057;-56
2024/02/19 02:06:04;;;;;;;2.08;0.70;;;;;;;;;;4995610;28;20101;-56
2024/02/19 02:08:29;;;;;;;1.38;0.50;;;;;;;;;;4997302;28;20027;-57
2024/02/19 02:10:54;;;;;;;1.90;0.60;;;;;;;;;;4996170;28;20019;-58
2024/02/19 02:13:21;;;;;;;1.88;0.60;;;;;;;;;;4993138;28;20383;-57
2024/02/19 02:15:46;;;;;;;2.00;0.60;;;;;;;;;;4991830;28;20038;-57
2024/02/19 02:18:12;;;;;;;1.60;0.50;;;;;;;;;;4994018;28;20491;-56
2024/02/19 02:20:39;;;;;;;2.28;0.70;;;;;;;;;;4993614;28;20082;-57
2024/02/19 02:23:04;;;;;;;2.13;0.60;;;;;;;;;;4992182;28;20026;-56
2024/02/19 02:25:29;;;;;;;1.00;0.43;;;;;;;;;;4991423;28;20030;-57
2024/02/19 02:27:55;;;;;;;1.70;0.60;;;;;;;;;;4991780;28;20339;-57
2024/02/19 02:30:20;;;;;;;1.63;0.50;;;;;;;;;;4991812;28;20025;-57
2024/02/19 02:32:45;;;;;;;1.58;0.50;;;;;;;;;;4991850;28;20022;-56
2024/02/19 02:35:10;;;;;;;1.20;0.50;;;;;;;;;;4996503;28;20026;-56
2024/02/19 02:37:35;;;;;;;1.27;0.50;;;;;;;;;;4996901;28;20031;-56
2024/02/19 02:40:00;;;;;;;1.43;0.50;;;;;;;;;;4998695;28;20019;-57
2024/02/19 02:42:25;;;;;;;1.10;0.50;;;;;;;;;;5028102;28;20109;-57
2024/02/19 02:44:51;;;;;;;1.53;0.50;;;;;;;;;;5021679;28;20111;-57
2024/02/19 02:47:16;;;;;;;2.05;0.70;;;;;;;;;;5017582;28;20152;-57
2024/02/19 02:49:41;;;;;;;2.50;0.50;;;;;;;;;;5017389;28;20417;-58
2024/02/19 02:52:06;;;;;;;2.15;0.80;;;;;;;;;;5020033;28;20088;-57
2024/02/19 02:54:32;;;;;;;1.50;0.40;;;;;;;;;;5020213;28;20052;-58
2024/02/19 02:56:59;;;;;;;1.42;0.50;;;;;;;;;;5022790;28;20507;-58
2024/02/19 02:59:24;;;;;;;1.48;0.50;;;;;;;;;;5021815;28;20041;-58
2024/02/19 03:01:50;;;;;;;1.80;0.60;;;;;;;;;;5025083;28;20058;-57
2024/02/19 03:04:16;;;;;;;1.67;0.50;;;;;;;;;;5024188;28;20037;-61
2024/02/19 03:06:41;;;;;;;2.00;0.60;;;;;;;;;;5025757;28;20072;-58
2024/02/19 03:09:06;;;;;;;2.20;0.60;;;;;;;;;;5023689;28;20049;-58
2024/02/19 03:11:32;;;;;;;1.93;0.50;;;;;;;;;;5015178;28;20441;-58
2024/02/19 03:13:57;;;;;;;1.33;0.45;;;;;;;;;;5014310;28;20129;-57
2024/02/19 03:16:22;;;;;;;1.27;0.40;;;;;;;;;;5014745;28;20405;-58
2024/02/19 03:18:48;;;;;;;2.03;0.60;;;;;;;;;;5014147;28;20186;-57
2024/02/19 03:21:15;;;;;;;1.08;0.45;;;;;;;;;;5013687;28;20041;-60
2024/02/19 03:23:47;;;;;;;3.75;0.50;;;;;;;;;;5013629;28;20026;-58
2024/02/19 03:26:12;;;;;;;1.95;0.60;;;;;;;;;;5011991;28;20065;-57
2024/02/19 03:28:37;;;;;;;1.58;0.40;;;;;;;;;;5013799;28;20111;-57
2024/02/19 03:31:02;;;;;;;1.38;0.45;;;;;;;;;;5013743;28;20383;-57
2024/02/19 03:33:27;;;;;;;1.57;0.53;;;;;;;;;;5013401;28;20026;-57
2024/02/19 03:35:53;;;;;;;1.63;0.50;;;;;;;;;;5013477;28;20034;-56
2024/02/19 03:38:18;;;;;;;1.80;0.50;;;;;;;;;;5013565;28;20382;-57
2024/02/19 03:40:43;;;;;;;1.83;0.60;;;;;;;;;;5014054;28;20072;-56
2024/02/19 03:43:09;;;;;;;1.17;0.47;;;;;;;;;;5019123;28;20042;-56
2024/02/19 03:45:35;;;;;;;2.30;0.50;;;;;;;;;;5012283;28;20033;-55
2024/02/19 03:48:00;;;;;;;1.60;0.40;;;;;;;;;;5014497;28;20022;-56
2024/02/19 03:50:25;;;;;;;1.08;0.40;;;;;;;;;;5015872;28;20033;-57
2024/02/19 03:52:51;;;;;;;1.73;0.47;;;;;;;;;;5019270;28;20072;-56
2024/02/19 03:55:17;;;;;;;1.43;0.50;;;;;;;;;;5020138;28;20086;-56
2024/02/19 03:57:44;;;;;;;2.03;0.63;;;;;;;;;;5019621;28;20568;-56
2024/02/19 04:00:11;;;;;;;;;;;;;;;;;;5018212;28;20386;-56
2024/02/19 04:02:36;;;;;;;0.57;0.20;;;;;;;;;;5017221;28;19967;-57
2024/02/19 04:05:02;;;;;;;0.95;0.30;;;;;;;;;;5019274;28;20029;-58
2024/02/19 04:07:27;;;;;;;0.77;0.33;;;;;;;;;;5015838;28;20572;-57
2024/02/19 04:09:52;;;;;;;2.45;0.90;;;;;;;;;;5013871;28;20057;-57
2024/02/19 04:12:17;;;;;;;0.98;0.30;;;;;;;;;;5013561;28;20049;-56
2024/02/19 04:14:42;;;;;;;1.63;0.40;;;;;;;;;;5014588;28;20449;-56
2024/02/19 04:17:07;;;;;;;1.88;0.40;;;;;;;;;;5014130;28;20022;-57
2024/02/19 04:19:32;;;;;;;0.75;0.40;;;;;;;;;;5013119;28;20025;-56
2024/02/19 04:21:57;;;;;;;0.90;0.30;;;;;;;;;;5012913;28;20469;-55
2024/02/19 04:24:23;;;;;;;1.50;0.43;;;;;;;;;;5012609;28;20068;-57
2024/02/19 04:26:48;;;;;;;1.23;0.30;;;;;;;;;;5012500;28;20033;-56
2024/02/19 04:29:13;;;;;;;0.70;0.30;;;;;;;;;;5012412;28;20045;-58
2024/02/19 04:31:38;;;;;;;0.85;0.40;;;;;;;;;;5004591;28;20411;-56
2024/02/19 04:34:05;;;;;;;0.70;0.30;;;;;;;;;;4993305;28;20471;-57
2024/02/19 04:36:31;;;;;;;1.25;0.40;;;;;;;;;;4993078;28;20026;-57
2024/02/19 04:38:56;;;;;;;1.05;0.40;;;;;;;;;;4993166;28;20036;-57
2024/02/19 04:41:21;;;;;;;1.20;0.50;;;;;;;;;;5001606;28;20101;-58
2024/02/19 04:43:46;;;;;;;2.57;0.70;;;;;;;;;;5012090;28;20057;-57
2024/02/19 04:46:11;;;;;;;2.15;0.40;;;;;;;;;;5012432;28;20525;-57
2024/02/19 04:48:37;;;;;;;0.98;0.47;;;;;;;;;;5012330;28;20497;-56
2024/02/19 04:51:03;;;;;;;2.17;0.40;;;;;;;;;;5012022;28;20021;-57
2024/02/19 04:53:29;;;;;;;1.52;0.50;;;;;;;;;;5009732;28;20043;-57
2024/02/19 04:55:54;;;;;;;1.42;0.55;;;;;;;;;;5011833;28;20489;-57
2024/02/19 04:58:19;;;;;;;0.67;0.33;;;;;;;;;;5012143;28;20030;-57
2024/02/19 05:00:45;;;;;;;0.68;0.30;;;;;;;;;;5011933;28;20032;-58
2024/02/19 05:03:10;;;;;;;0.77;0.40;;;;;;;;;;4994225;28;20027;-58
2024/02/19 05:05:35;;;;;;;0.85;0.40;;;;;;;;;;4992347;28;20114;-57
2024/02/19 05:08:01;;;;;;;1.35;0.50;;;;;;;;;;4992290;28;20033;-58
2024/02/19 05:10:26;;;;;;;0.57;0.30;;;;;;;;;;4992445;28;20467;-57
2024/02/19 05:12:51;;;;;;;1.20;0.50;;;;;;;;;;4992106;28;20034;-57
2024/02/19 05:15:17;;;;;;;2.92;0.60;;;;;;;;;;4992120;28;20437;-57
2024/02/19 05:17:43;;;;;;;1.35;0.50;;;;;;;;;;4992415;28;20562;-56
2024/02/19 05:20:10;;;;;;;1.30;0.47;;;;;;;;;;4992054;28;20041;-59
2024/02/19 05:22:36;;;;;;;2.80;0.47;;;;;;;;;;4991964;28;20434;-56
2024/02/19 05:25:02;;;;;;;1.45;0.50;;;;;;;;;;4991983;28;20034;-56
2024/02/19 05:27:27;;;;;;;2.40;0.57;;;;;;;;;;4992102;28;20027;-57
2024/02/19 05:29:52;;;;;;;1.03;0.43;;;;;;;;;;4991784;28;20541;-56
2024/02/19 05:32:17;;;;;;;1.57;0.50;;;;;;;;;;4991847;28;20069;-57
2024/02/19 05:34:42;;;;;;;1.33;0.60;;;;;;;;;;4991290;28;20030;-57
2024/02/19 05:37:07;;;;;;;1.88;0.47;;;;;;;;;;4991725;28;20022;-58
2024/02/19 05:39:33;;;;;;;0.95;0.50;;;;;;;;;;4995887;28;20013;-57
2024/02/19 05:41:58;;;;;;;1.70;0.60;;;;;;;;;;5022047;28;20071;-57
2024/02/19 05:44:23;;;;;;;1.05;0.50;;;;;;;;;;5030910;28;20096;-56
2024/02/19 05:46:48;;;;;;;2.00;0.70;;;;;;;;;;5032598;28;20052;-56
2024/02/19 05:49:13;;;;;;;1.25;0.50;;;;;;;;;;5032234;28;20037;-60
2024/02/19 05:51:40;;;;;;;2.53;0.60;;;;;;;;;;5031950;28;20025;-57
2024/02/19 05:54:07;;;;;;;2.75;0.80;;;;;;;;;;5032367;28;20485;-57
2024/02/19 05:56:32;;;;;;;2.47;0.90;;;;;;;;;;5023193;28;20026;-56
2024/02/19 05:58:57;;;;;;;1.70;0.70;;;;;;;;;;4991797;28;20029;-56
2024/02/19 06:01:22;;;;;;;1.17;0.50;;;;;;;;;;4995369;28;20372;-58
2024/02/19 06:03:48;;;;;;;2.55;0.60;;;;;;;;;;5010118;28;20774;-56
2024/02/19 06:06:13;;;;;;;1.98;0.57;;;;;;;;;;5009942;28;20037;-56
2024/02/19 06:08:38;;;;;;;1.70;0.50;;;;;;;;;;5013004;28;20070;-57
2024/02/19 06:11:03;;;;;;;0.83;0.40;;;;;;;;;;5015574;28;20026;-57
2024/02/19 06:13:28;;;;;;;1.33;0.50;;;;;;;;;;5008963;28;20467;-56
2024/02/19 06:15:54;;;;;;;1.30;0.60;;;;;;;;;;5013177;28;20029;-56
2024/02/19 06:18:19;;;;;;;0.87;0.40;;;;;;;;;;5013110;28;20134;-57
2024/02/19 06:20:44;;;;;;;1.10;0.40;;;;;;;;;;5013014;28;20029;-57
2024/02/19 06:23:09;;;;;;;0.60;0.30;;;;;;;;;;5012064;28;21077;-57
2024/02/19 06:25:34;;;;;;;0.35;0.20;;;;;;;;;;5012448;28;20438;-57
2024/02/19 06:28:02;;;;;;;0.50;0.20;;;;;;;;;;5014674;28;20025;-57
2024/02/19 06:30:27;;;;;;;1.33;0.32;;;;;;;;;;5013180;28;20096;-57
2024/02/19 06:32:52;;;;;;;0.40;0.20;;;;;;;;;;5012453;28;20060;-57
2024/02/19 06:35:17;;;;;;;0.30;0.20;;;;;;;;;;5010062;28;20038;-57
2024/02/19 06:37:42;;;;;;;0.77;0.20;;;;;;;;;;5014796;28;20382;-57
2024/02/19 06:40:08;;;;;;;0.63;0.20;;;;;;;;;;5014941;28;20045;-57
2024/02/19 06:42:33;;;;;;;0.70;0.25;;;;;;;;;;5011448;28;20053;-57
2024/02/19 06:44:58;;;;;;;0.43;0.10;;;;;;;;;;5017593;28;20417;-58
2024/02/19 06:47:23;;;;;;;0.65;0.20;;;;;;;;;;5003971;28;20501;-57
2024/02/19 06:49:48;;;;;;;0.47;0.30;;;;;;;;;;4995386;28;20030;-56
2024/02/19 06:52:13;;;;;;;1.13;0.30;;;;;;;;;;4995055;28;20069;-57
2024/02/19 06:54:39;;;;;;;0.70;0.30;;;;;;;;;;4996029;28;20017;-57
2024/02/19 06:57:04;;;;;;;1.90;0.38;;;;;;;;;;4995313;28;20107;-57
2024/02/19 06:59:30;;;;;;;0.57;0.20;;;;;;;;;;5001410;28;20044;-57
2024/02/19 07:01:55;;;;;;;1.33;0.30;;;;;;;;;;5013926;28;20502;-56
2024/02/19 07:04:21;;;;;;;0.28;0.10;;;;;;;;;;5014160;28;20038;-56
2024/02/19 07:06:46;;;;;;;0.77;0.40;;;;;;;;;;5014541;28;20054;-56
2024/02/19 07:09:11;;;;;;;0.50;0.30;;;;;;;;;;5007804;28;20034;-58
2024/02/19 07:11:36;;;;;;;0.77;0.28;;;;;;;;;;5011265;28;20036;-56
2024/02/19 07:14:02;;;;;;;2.78;0.40;;;;;;;;;;5009805;28;20026;-56
2024/02/19 07:16:27;;;;;;;0.70;0.30;;;;;;;;;;5012707;28;20508;-57
2024/02/19 07:18:52;;;;;;;1.17;0.23;;;;;;;;;;5007613;28;20124;-56
2024/02/19 07:21:17;;;;;;;0.63;0.30;;;;;;;;;;5010226;28;20054;-57
2024/02/19 07:23:43;;;;;;;0.47;0.30;;;;;;;;;;5008948;28;20034;-57
2024/02/19 07:26:08;;;;;;;0.83;0.33;;;;;;;;;;5028454;28;20104;-58
2024/02/19 07:28:33;;;;;;;0.80;0.30;;;;;;;;;;5028700;28;20026;-58
2024/02/19 07:30:58;;;;;;;2.28;0.40;;;;;;;;;;5010392;28;20034;-58
2024/02/19 07:33:23;;;;;;;0.77;0.30;;;;;;;;;;5012014;28;20064;-58
2024/02/19 07:35:49;;;;;;;0.70;0.20;;;;;;;;;;5010252;28;20021;-56
2024/02/19 07:38:14;;;;;;;0.38;0.25;;;;;;;;;;5008103;28;20029;-57
2024/02/19 07:40:39;;;;;;;1.70;0.37;;;;;;;;;;5005827;28;20092;-59
2024/02/19 07:43:06;;;;;;;3.17;0.50;;;;;;;;;;5030721;28;20022;-58
2024/02/19 07:45:31;;;;;;;0.60;0.30;;;;;;;;;;5023583;28;20029;-57
2024/02/19 07:47:56;;;;;;;1.90;0.40;;;;;;;;;;5029598;28;20014;-58
2024/02/19 07:50:21;;;;;;;2.45;0.60;;;;;;;;;;5006178;28;20046;-57
2024/02/19 07:52:47;;;;;;;1.13;0.40;;;;;;;;;;5009953;28;20453;-58
2024/02/19 07:55:12;;;;;;;1.05;0.50;;;;;;;;;;5008189;28;20068;-58
2024/02/19 07:57:37;;;;;;;1.63;0.60;;;;;;;;;;5016305;28;20053;-56
2024/02/19 08:00:03;;;;;;;1.57;0.70;;;;;;;;;;5011184;28;20030;-57
2024/02/19 08:02:28;;;;;;;2.03;0.73;;;;;;;;;;5020628;28;20075;-57
2024/02/19 08:04:54;;;;;;;3.75;0.80;;;;;;;;;;5012321;28;20026;-58
2024/02/19 08:07:19;;;;;;;1.20;0.60;;;;;;;;;;5012406;28;20177;-57
2024/02/19 08:09:45;;;;;;;3.05;0.80;;;;;;;;;;5006499;28;20988;-56
2024/02/19 08:12:10;;;;;;;2.70;0.80;;;;;;;;;;5011857;28;20112;-59
2024/02/19 08:14:35;;;;;;;1.50;0.70;;;;;;;;;;5011039;28;20045;-57
2024/02/19 08:17:01;;;;;;;2.83;0.80;;;;;;;;;;5032686;28;20025;-57
2024/02/19 08:19:26;;;;;;;3.20;0.88;;;;;;;;;;5019848;28;20033;-57
2024/02/19 08:21:51;;;;;;;3.42;1.15;;;;;;;;;;5015199;28;20021;-57
2024/02/19 08:24:17;;;;;;;3.13;1.15;;;;;;;;;;5012689;28;20382;-57
2024/02/19 08:26:42;;;;;;;4.53;1.30;;;;;;;;;;5012426;28;20022;-57
2024/02/19 08:29:07;;;;;;;3.93;1.70;;;;;;;;;;5012715;28;20401;-57
2024/02/19 08:31:32;;;;;;;4.10;1.50;;;;;;;;;;5010885;28;20038;-57
2024/02/19 08:33:58;;;;;;;5.10;1.70;;;;;;;;;;5010750;28;20021;-58
2024/02/19 08:36:23;;;;;;;11.43;3.00;;;;;;;;;;5013443;28;20050;-57
2024/02/19 08:38:55;;;;;;;16.48;2.70;;;;;;;;;;5012618;28;20022;-57
2024/02/19 08:41:20;;;;;;;4.78;1.50;;;;;;;;;;4993854;28;20030;-58
2024/02/19 08:43:45;;;;;;;3.87;1.43;;;;;;;;;;5001322;28;20092;-56
2024/02/19 08:46:10;;;;;;;4.72;1.30;;;;;;;;;;5012387;28;20017;-58
2024/02/19 08:48:37;;;;;;;9.67;2.43;;;;;;;;;;5011141;28;20041;-58
2024/02/19 08:51:02;;;;;;;;;;;;;;;;;;5013027;28;20022;-58
2024/02/19 08:53:30;;;;;;;5.30;1.38;;;;;;;;;;5011994;28;19912;-57
2024/02/19 08:55:55;;;;;;;4.10;1.20;;;;;;;;;;5011919;28;20026;-57
2024/02/19 08:58:20;;;;;;;3.20;1.40;;;;;;;;;;5012143;28;20506;-58
2024/02/19 09:00:46;;;;;;;3.10;1.10;;;;;;;;;;5006131;28;20538;-58
2024/02/19 09:03:11;;;;;;;3.77;0.80;;;;;;;;;;4992080;28;20134;-58
2024/02/19 09:05:37;;;;;;;2.10;0.80;;;;;;;;;;5011671;28;20022;-56
2024/02/19 09:08:03;;;;;;;16.25;3.05;;;;;;;;;;5011891;28;20490;-58
2024/02/19 09:10:28;;;;;;;2.45;0.88;;;;;;;;;;5012776;28;20033;-58
2024/02/19 09:12:53;;;;;;;5.07;1.20;;;;;;;;;;5011859;28;20018;-56
2024/02/19 09:15:19;;;;;;;2.80;0.80;;;;;;;;;;5012970;28;20053;-57
2024/02/19 09:17:45;;;;;;;4.10;1.63;;;;;;;;;;5013348;28;20029;-57
2024/02/19 09:20:11;;;;;;;2.20;0.80;;;;;;;;;;5012542;28;20030;-56
2024/02/19 09:22:36;;;;;;;7.95;1.27;;;;;;;;;;5011710;28;20030;-57
2024/02/19 09:25:02;;;;;;;3.60;0.90;;;;;;;;;;5011366;28;20117;-56
2024/02/19 09:27:27;;;;;;;2.83;0.90;;;;;;;;;;5012203;28;20037;-56
2024/02/19 09:29:52;;;;;;;4.53;1.37;;;;;;;;;;5013044;28;20057;-56
2024/02/19 09:32:17;;;;;;;3.92;1.63;;;;;;;;;;5016187;28;20056;-57
2024/02/19 09:34:43;;;;;;;2.97;1.10;;;;;;;;;;5022692;28;20025;-57
2024/02/19 09:37:08;;;;;;;4.35;1.48;;;;;;;;;;5022749;28;20026;-57
2024/02/19 09:39:33;;;;;;;4.32;1.27;;;;;;;;;;5025357;28;20484;-58
2024/02/19 09:41:58;;;;;;;3.53;1.20;;;;;;;;;;5024806;28;20509;-57
2024/02/19 09:44:23;;;;;;;5.30;1.40;;;;;;;;;;5025300;28;20018;-57
2024/02/19 09:46:52;;;;;;;3.23;1.10;;;;;;;;;;5012944;28;20022;-56
2024/02/19 09:49:21;;;;;;;2.55;1.08;;;;;;;;;;5012299;28;20494;-57
2024/02/19 09:51:50;;;;;;;3.53;1.05;;;;;;;;;;5011790;28;20426;-57
2024/02/19 09:54:16;;;;;;;4.03;1.00;;;;;;;;;;5011795;28;20025;-58
2024/02/19 09:56:41;;;;;;;2.70;0.80;;;;;;;;;;5011925;28;20377;-57
2024/02/19 09:59:06;;;;;;;2.60;0.90;;;;;;;;;;5012560;28;20029;-57
2024/02/19 10:01:31;;;;;;;8.75;1.27;;;;;;;;;;5011265;28;20022;-57
2024/02/19 10:03:57;;;;;;;2.13;0.68;;;;;;;;;;5010751;28;20029;-58
2024/02/19 10:06:29;;;;;;;2.55;0.70;;;;;;;;;;4992018;28;20397;-57
2024/02/19 10:08:54;;;;;;;1.98;0.55;;;;;;;;;;4991279;28;20037;-56
2024/02/19 10:11:19;;;;;;;2.30;0.70;;;;;;;;;;4991194;28;20022;-57
2024/02/19 10:13:44;;;;;;;3.33;0.90;;;;;;;;;;4991032;28;20057;-57
2024/02/19 10:16:09;;;;;;;2.42;0.70;;;;;;;;;;4991844;28;20418;-57
2024/02/19 10:18:35;;;;;;;2.43;0.80;;;;;;;;;;4993026;28;20026;-57
2024/02/19 10:21:00;;;;;;;1.90;0.60;;;;;;;;;;4995429;28;20049;-59
2024/02/19 10:23:25;;;;;;;2.73;0.60;;;;;;;;;;5012380;28;20033;-57
2024/02/19 10:25:50;;;;;;;2.73;0.60;;;;;;;;;;5014771;28;20041;-58
2024/02/19 10:28:18;;;;;;;2.67;0.70;;;;;;;;;;5012995;28;20041;-57
2024/02/19 10:30:43;;;;;;;2.72;0.90;;;;;;;;;;5011609;28;20390;-57
2024/02/19 10:33:08;;;;;;;1.67;0.80;;;;;;;;;;5010999;28;20068;-57
2024/02/19 10:35:33;;;;;;;2.27;0.90;;;;;;;;;;5010798;28;20033;-57
2024/02/19 10:38:00;;;;;;;2.30;0.90;;;;;;;;;;5011010;28;20441;-57
2024/02/19 10:40:26;;;;;;;3.17;1.10;;;;;;;;;;5010900;28;20068;-57
2024/02/19 10:42:51;;;;;;;3.33;1.30;;;;;;;;;;5010669;28;20037;-56
2024/02/19 10:45:24;;;;;;;9.70;3.10;;;;;;;;;;5004347;28;20445;-57
2024/02/19 10:47:50;;;;;;;3.75;1.50;;;;;;;;;;4991385;28;20122;-57
2024/02/19 10:50:17;;;;;;;3.25;1.42;;;;;;;;;;4990866;28;20110;-57
2024/02/19 10:52:43;;;;;;;3.50;1.60;;;;;;;;;;4991046;28;20165;-56
2024/02/19 10:55:11;;;;;;;3.53;1.35;;;;;;;;;;4993599;28;20054;-56
2024/02/19 10:57:49;;;;;;;2.90;1.50;;;;;;;;;;4994441;28;20018;-57
2024/02/19 11:00:15;;;;;;;3.13;1.52;;;;;;;;;;4994338;28;20030;-56
2024/02/19 11:02:40;;;;;;;2.88;1.30;;;;;;;;;;4994405;28;20022;-57
2024/02/19 11:05:07;;;;;;;2.72;1.23;;;;;;;;;;4993529;28;20085;-58
2024/02/19 11:07:33;;;;;;;2.58;1.15;;;;;;;;;;5014318;28;20080;-57
2024/02/19 11:09:58;;;;;;;2.85;1.38;;;;;;;;;;5015392;28;20034;-56
2024/02/19 11:12:25;;;;;;;2.77;1.20;;;;;;;;;;5014398;28;20117;-57
2024/02/19 11:14:51;;;;;;;2.80;1.27;;;;;;;;;;5013776;28;20625;-57
2024/02/19 11:17:16;;;;;;;2.95;1.20;;;;;;;;;;5014018;28;20024;-56
2024/02/19 11:19:41;;;;;;;3.75;1.30;;;;;;;;;;5013850;28;20026;-56
2024/02/19 11:22:11;;;;;;;3.87;1.47;;;;;;;;;;5013643;28;20061;-56
2024/02/19 11:24:37;;;;;;;2.80;1.27;;;;;;;;;;5013355;28;20402;-57
2024/02/19 11:27:02;;;;;;;3.38;1.23;;;;;;;;;;5013492;28;20030;-58
2024/02/19 11:29:27;;;;;;;5.75;1.40;;;;;;;;;;5013499;28;20109;-56
2024/02/19 11:31:59;;;;;;;3.60;1.40;;;;;;;;;;5012028;28;20052;-56
2024/02/19 11:34:25;;;;;;;2.40;1.10;;;;;;;;;;4998667;28;20486;-57
2024/02/19 11:36:50;;;;;;;3.42;1.30;;;;;;;;;;4993894;28;20034;-55
2024/02/19 11:39:15;;;;;;;2.57;1.10;;;;;;;;;;4993570;28;20029;-58
2024/02/19 11:41:43;;;;;;;3.40;1.20;;;;;;;;;;4993609;28;20453;-56
2024/02/19 11:44:12;;;;;;;2.35;1.00;;;;;;;;;;4999200;28;20169;-57
2024/02/19 11:46:37;;;;;;;2.30;1.00;;;;;;;;;;5013314;28;20025;-57
2024/02/19 11:49:03;;;;;;;2.27;0.97;;;;;;;;;;5013391;28;20030;-56
2024/02/19 11:51:28;;;;;;;2.17;0.90;;;;;;;;;;5013282;28;20014;-56
2024/02/19 11:53:53;;;;;;;2.17;0.70;;;;;;;;;;5012797;28;20129;-56
2024/02/19 11:56:19;;;;;;;2.38;0.80;;;;;;;;;;5013279;28;20045;-58
2024/02/19 11:58:48;;;;;;;2.13;0.82;;;;;;;;;;5013446;28;20022;-57
2024/02/19 12:01:17;;;;;;;1.85;0.80;;;;;;;;;;4994673;28;20054;-56
2024/02/19 12:03:42;;;;;;;2.35;0.85;;;;;;;;;;4993611;28;20023;-57
2024/02/19 12:06:09;;;;;;;2.27;0.80;;;;;;;;;;4992588;28;20015;-57
2024/02/19 12:08:34;;;;;;;3.70;1.00;;;;;;;;;;4993747;28;20040;-56
2024/02/19 12:11:00;;;;;;;2.30;0.90;;;;;;;;;;5013905;28;20106;-56
2024/02/19 12:13:25;;;;;;;3.08;1.00;;;;;;;;;;4993488;28;20053;-56
2024/02/19 12:15:51;;;;;;;2.80;1.05;;;;;;;;;;4993942;28;20026;-58
2024/02/19 12:18:16;;;;;;;2.78;1.20;;;;;;;;;;4994778;28;20053;-58
2024/02/19 12:20:41;;;;;;;3.17;1.23;;;;;;;;;;4993620;28;20018;-58
2024/02/19 12:23:07;;;;;;;3.70;1.37;;;;;;;;;;4994066;28;20030;-61
2024/02/19 12:25:32;;;;;;;5.95;1.30;;;;;;;;;;4994629;28;20509;-57
2024/02/19 12:27:57;;;;;;;3.10;1.40;;;;;;;;;;4993813;28;20023;-56
2024/02/19 12:30:23;;;;;;;3.17;1.35;;;;;;;;;;4994667;28;20348;-57
2024/02/19 12:32:48;;;;;;;2.85;1.20;;;;;;;;;;5004316;28;20115;-57
2024/02/19 12:35:15;;;;;;;3.17;1.20;;;;;;;;;;5012240;28;20029;-57
2024/02/19 12:37:40;;;;;;;3.58;1.00;;;;;;;;;;5012430;28;20014;-56
2024/02/19 12:40:06;;;;;;;3.17;1.10;;;;;;;;;;5012432;28;20108;-57
2024/02/19 12:42:31;;;;;;;3.20;1.10;;;;;;;;;;5012376;28;20034;-57
2024/02/19 12:44:56;;;;;;;3.97;1.37;;;;;;;;;;5013071;28;20014;-57
2024/02/19 12:47:23;;;;;;;2.72;1.10;;;;;;;;;;5011988;28;20018;-56
2024/02/19 12:49:48;;;;;;;3.88;1.15;;;;;;;;;;5011270;28;20099;-57
2024/02/19 12:52:14;;;;;;;2.17;1.00;;;;;;;;;;5006373;28;20475;-57
2024/02/19 12:54:46;;;;;;;3.85;1.10;;;;;;;;;;5009177;28;20049;-56
2024/02/19 12:57:13;;;;;;;2.28;1.10;;;;;;;;;;5010765;28;20064;-57
2024/02/19 12:59:38;;;;;;;2.50;1.10;;;;;;;;;;5012146;28;20355;-57
2024/02/19 13:02:04;;;;;;;2.92;1.00;;;;;;;;;;5012067;28;20076;-57
2024/02/19 13:04:29;;;;;;;3.13;1.15;;;;;;;;;;5012070;28;20133;-57
2024/02/19 13:06:55;;;;;;;2.30;0.90;;;;;;;;;;5011824;28;20389;-57
2024/02/19 13:09:20;;;;;;;2.03;0.93;;;;;;;;;;5010069;28;20026;-57
2024/02/19 13:11:46;;;;;;;3.15;0.95;;;;;;;;;;5011758;28;20155;-56
2024/02/19 13:14:11;;;;;;;2.30;1.00;;;;;;;;;;5011588;28;20041;-57
2024/02/19 13:16:36;;;;;;;2.50;1.00;;;;;;;;;;5011611;28;20379;-57
2024/02/19 13:19:01;;;;;;;2.80;1.10;;;;;;;;;;5011882;28;20057;-56
2024/02/19 13:21:27;;;;;;;2.13;1.03;;;;;;;;;;5000235;28;20037;-57
2024/02/19 13:23:52;;;;;;;2.93;1.03;;;;;;;;;;4991687;28;20034;-57
2024/02/19 13:26:17;;;;;;;3.70;1.20;;;;;;;;;;4991623;28;20125;-56
2024/02/19 13:28:42;;;;;;;3.92;1.10;;;;;;;;;;5004289;28;20030;-57
2024/02/19 13:31:07;;;;;;;2.33;1.00;;;;;;;;;;5011187;28;20113;-57
2024/02/19 13:33:33;;;;;;;2.83;1.20;;;;;;;;;;5011340;28;20457;-56
2024/02/19 13:35:58;;;;;;;3.70;1.20;;;;;;;;;;5009919;28;20022;-58
2024/02/19 13:38:25;;;;;;;3.00;1.15;;;;;;;;;;5011284;28;20437;-57
2024/02/19 13:40:50;;;;;;;2.70;1.25;;;;;;;;;;5009494;28;20041;-57
2024/02/19 13:43:15;;;;;;;2.70;1.10;;;;;;;;;;5011366;28;20022;-56
2024/02/19 13:46:01;;;;;;;1.80;0.90;;;;;;;;;;5010932;28;20022;-56
2024/02/19 13:48:26;;;;;;;3.22;1.02;;;;;;;;;;5009717;28;20028;-57
2024/02/19 13:50:52;;;;;;;2.83;0.75;;;;;;;;;;5009861;28;20104;-57
2024/02/19 13:53:17;;;;;;;2.90;1.00;;;;;;;;;;5011129;28;20085;-57
2024/02/19 13:55:42;;;;;;;2.97;1.00;;;;;;;;;;5010685;28;20025;-57
2024/02/19 13:58:07;;;;;;;3.13;1.10;;;;;;;;;;5011269;28;20022;-58
2024/02/19 14:00:33;;;;;;;3.67;1.40;;;;;;;;;;5011586;28;20053;-57
2024/02/19 14:02:58;;;;;;;2.40;1.10;;;;;;;;;;5011298;28;20026;-56
2024/02/19 14:05:24;;;;;;;2.92;1.10;;;;;;;;;;5011208;28;20052;-57
2024/02/19 14:07:49;;;;;;;2.47;1.08;;;;;;;;;;5011277;28;20022;-57
2024/02/19 14:10:14;;;;;;;2.72;0.82;;;;;;;;;;4992711;28;20033;-57
2024/02/19 14:12:39;;;;;;;2.10;0.90;;;;;;;;;;4992005;28;20033;-57
2024/02/19 14:15:05;;;;;;;2.43;0.90;;;;;;;;;;4991217;28;20029;-57
2024/02/19 14:17:30;;;;;;;2.10;0.90;;;;;;;;;;4994036;28;20068;-57
2024/02/19 14:19:55;;;;;;;2.28;0.70;;;;;;;;;;5010691;28;20424;-57
2024/02/19 14:22:21;;;;;;;3.13;0.82;;;;;;;;;;5011353;28;20116;-57
2024/02/19 14:24:46;;;;;;;1.85;0.80;;;;;;;;;;5009134;28;20078;-58
2024/02/19 14:27:12;;;;;;;1.83;0.80;;;;;;;;;;5011796;28;20090;-57
2024/02/19 14:29:37;;;;;;;2.55;0.80;;;;;;;;;;5015858;28;20041;-57
2024/02/19 14:32:03;;;;;;;2.13;0.90;;;;;;;;;;5018535;28;20421;-56
2024/02/19 14:34:32;;;;;;;;;;;;;;;;;;5018687;28;20402;-57